createdAt,value
2018-09-06T00:00:06.334Z,21.27
2018-09-06T00:01:06.259Z,21.26
2018-09-06T00:02:06.178Z,21.19
2018-09-06T00:03:06.126Z,21.22
2018-09-06T00:04:06.020Z,21.26
2018-09-06T00:05:05.951Z,21.18
2018-09-06T00:06:05.857Z,21.18
2018-09-06T00:08:47.695Z,21.16
2018-09-06T00:09:47.602Z,21.16
2018-09-06T00:10:47.526Z,21.16
2018-09-06T00:11:47.479Z,21.24
2018-09-06T00:12:47.402Z,21.16
2018-09-06T00:13:47.308Z,21.19
2018-09-06T00:14:47.198Z,21.21
2018-09-06T00:15:47.143Z,21.18
2018-09-06T00:16:47.080Z,21.18
2018-09-06T00:19:29.199Z,21.12
2018-09-06T00:20:29.117Z,21.13
2018-09-06T00:21:29.021Z,21.11
2018-09-06T00:22:28.979Z,21.16
2018-09-06T00:23:28.863Z,21.19
2018-09-06T00:24:29.811Z,21.09
2018-09-06T00:25:28.754Z,21.18
2018-09-06T00:28:10.694Z,21.09
2018-09-06T00:29:10.690Z,21.08
2018-09-06T00:30:10.535Z,21.11
2018-09-06T00:31:10.463Z,21.12
2018-09-06T00:32:10.377Z,21.13
2018-09-06T00:34:52.206Z,21.01
2018-09-06T00:35:52.123Z,21.05
2018-09-06T00:36:52.029Z,21.09
2018-09-06T00:37:51.959Z,21.11
2018-09-06T00:38:51.897Z,20.93
2018-09-06T00:39:51.800Z,21.11
2018-09-06T00:40:51.715Z,21.00
2018-09-06T00:41:51.641Z,20.97
2018-09-06T00:42:51.557Z,20.90
2018-09-06T00:43:51.480Z,20.96
2018-09-06T00:44:51.422Z,21.00
2018-09-06T00:45:51.331Z,21.06
2018-09-06T00:46:51.248Z,21.01
2018-09-06T00:47:51.171Z,21.01
2018-09-06T00:48:51.084Z,21.03
2018-09-06T00:49:51.035Z,21.05
2018-09-06T00:50:50.951Z,21.05
2018-09-06T00:53:33.188Z,21.05
2018-09-06T00:54:33.137Z,21.11
2018-09-06T00:55:33.034Z,21.12
2018-09-06T00:58:15.199Z,21.12
2018-09-06T00:59:15.123Z,21.09
2018-09-06T01:00:15.048Z,21.15
2018-09-06T01:01:15.142Z,21.12
2018-09-06T01:02:14.883Z,21.05
2018-09-06T01:03:14.809Z,21.11
2018-09-06T01:04:14.717Z,21.06
2018-09-06T01:05:14.669Z,21.12
2018-09-06T01:06:14.563Z,21.06
2018-09-06T01:07:14.493Z,21.03
2018-09-06T01:08:14.412Z,21.18
2018-09-06T01:10:56.706Z,21.03
2018-09-06T01:12:17.601Z,20.98
2018-09-06T01:12:56.538Z,21.00
2018-09-06T01:13:56.464Z,21.03
2018-09-06T01:14:56.384Z,21.11
2018-09-06T01:15:56.338Z,21.09
2018-09-06T01:16:56.218Z,20.96
2018-09-06T01:17:56.160Z,20.94
2018-09-06T01:18:56.067Z,20.98
2018-09-06T01:19:55.996Z,20.96
2018-09-06T01:20:55.929Z,20.97
2018-09-06T01:21:55.834Z,21.01
2018-09-06T01:22:55.750Z,20.93
2018-09-06T01:23:55.685Z,20.90
2018-09-06T01:24:55.595Z,20.90
2018-09-06T01:25:55.547Z,20.88
2018-09-06T01:26:55.440Z,20.93
2018-09-06T01:29:37.698Z,21.00
2018-09-06T01:30:37.633Z,20.90
2018-09-06T01:31:37.563Z,20.90
2018-09-06T01:32:37.468Z,20.91
2018-09-06T01:59:18.743Z,20.76
2018-09-06T02:00:18.626Z,20.71
2018-09-06T02:01:18.573Z,20.71
2018-09-06T02:02:18.515Z,20.71
2018-09-06T02:03:18.403Z,20.72
2018-09-06T02:04:18.325Z,20.63
2018-09-06T02:05:18.244Z,20.63
2018-09-06T02:06:18.174Z,20.57
2018-09-06T02:07:18.109Z,20.57
2018-09-06T02:08:18.010Z,20.57
2018-09-06T02:09:17.931Z,20.58
2018-09-06T02:10:17.842Z,20.51
2018-09-06T02:11:17.785Z,20.44
2018-09-06T02:12:17.736Z,20.35
2018-09-06T02:13:17.634Z,20.35
2018-09-06T02:14:17.544Z,20.27
2018-09-06T02:15:17.459Z,20.30
2018-09-06T02:16:17.378Z,20.31
2018-09-06T02:17:17.304Z,20.35
2018-09-06T02:18:17.249Z,20.23
2018-09-06T02:19:17.150Z,20.20
2018-09-06T02:20:17.060Z,20.16
2018-09-06T02:21:17.002Z,20.13
2018-09-06T02:22:16.903Z,20.04
2018-09-06T02:23:16.861Z,20.07
2018-09-06T02:24:16.762Z,19.97
2018-09-06T02:26:58.720Z,19.87
2018-09-06T02:29:40.742Z,19.70
2018-09-06T02:30:40.650Z,19.62
2018-09-06T02:31:40.570Z,19.76
2018-09-06T02:34:22.750Z,19.64
2018-09-06T02:37:04.736Z,19.55
2018-09-06T02:38:04.703Z,19.58
2018-09-06T02:39:04.579Z,19.60
2018-09-06T02:40:04.498Z,19.64
2018-09-06T02:41:04.409Z,19.61
2018-09-06T02:42:04.340Z,19.61
2018-09-06T02:43:04.252Z,19.57
2018-09-06T02:44:05.203Z,19.57
2018-09-06T02:45:04.164Z,19.57
2018-09-06T02:46:04.017Z,19.50
2018-09-06T02:47:03.935Z,19.47
2018-09-06T02:48:03.868Z,19.47
2018-09-06T02:49:03.776Z,19.47
2018-09-06T02:50:03.722Z,19.47
2018-09-06T02:51:03.621Z,19.49
2018-09-06T02:52:03.559Z,19.57
2018-09-06T02:53:03.463Z,19.49
2018-09-06T02:54:03.478Z,19.42
2018-09-06T02:55:03.352Z,19.42
2018-09-06T02:56:03.223Z,19.38
2018-09-06T02:57:03.161Z,19.30
2018-09-06T02:58:03.133Z,19.32
2018-09-06T02:59:02.994Z,19.34
2018-09-06T03:00:02.932Z,19.30
2018-09-06T03:01:02.823Z,19.31
2018-09-06T03:02:02.752Z,19.32
2018-09-06T03:03:02.673Z,19.32
2018-09-06T03:04:02.596Z,19.35
2018-09-06T03:05:02.534Z,19.31
2018-09-06T03:06:02.441Z,19.24
2018-09-06T03:07:02.359Z,19.31
2018-09-06T03:08:02.279Z,19.25
2018-09-06T03:09:02.197Z,19.28
2018-09-06T03:10:02.155Z,19.32
2018-09-06T03:11:02.144Z,19.27
2018-09-06T03:12:01.966Z,19.23
2018-09-06T03:13:01.890Z,19.31
2018-09-06T03:14:01.814Z,19.23
2018-09-06T03:15:01.723Z,19.27
2018-09-06T03:16:02.666Z,19.24
2018-09-06T03:17:01.577Z,19.34
2018-09-06T03:19:43.744Z,19.31
2018-09-06T03:20:43.679Z,19.31
2018-09-06T03:21:43.600Z,19.32
2018-09-06T03:22:43.505Z,19.28
2018-09-06T03:23:43.421Z,19.32
2018-09-06T03:24:43.358Z,19.30
2018-09-06T03:25:43.268Z,19.31
2018-09-06T03:26:43.214Z,19.31
2018-09-06T03:27:43.105Z,19.31
2018-09-06T03:28:43.040Z,19.34
2018-09-06T03:29:42.946Z,19.30
2018-09-06T03:30:42.871Z,19.32
2018-09-06T03:31:42.818Z,19.30
2018-09-06T03:32:42.732Z,19.24
2018-09-06T03:33:42.628Z,19.17
2018-09-06T03:36:24.772Z,19.13
2018-09-06T03:37:24.670Z,19.15
2018-09-06T03:38:24.575Z,19.02
2018-09-06T03:39:24.522Z,19.05
2018-09-06T03:40:24.437Z,19.09
2018-09-06T03:41:24.379Z,19.02
2018-09-06T03:42:24.270Z,18.96
2018-09-06T03:43:24.281Z,19.07
2018-09-06T03:44:24.126Z,18.94
2018-09-06T03:45:24.037Z,18.97
2018-09-06T03:46:23.946Z,19.10
2018-09-06T03:47:23.904Z,18.99
2018-09-06T03:48:23.805Z,19.07
2018-09-06T03:49:23.716Z,18.99
2018-09-06T03:50:23.628Z,19.06
2018-09-06T03:51:23.556Z,19.06
2018-09-06T03:52:23.495Z,19.09
2018-09-06T03:53:23.411Z,18.97
2018-09-06T03:54:23.317Z,19.02
2018-09-06T03:55:23.313Z,19.13
2018-09-06T03:56:23.150Z,19.07
2018-09-06T03:57:23.159Z,19.09
2018-09-06T03:58:23.001Z,19.10
2018-09-06T03:59:23.035Z,18.96
2018-09-06T04:00:22.852Z,19.07
2018-09-06T04:01:22.839Z,19.09
2018-09-06T04:02:22.710Z,19.01
2018-09-06T04:03:22.647Z,19.05
2018-09-06T04:04:22.533Z,19.05
2018-09-06T04:05:22.464Z,19.12
2018-09-06T04:06:22.358Z,18.96
2018-09-06T04:07:22.344Z,18.82
2018-09-06T04:08:22.225Z,18.86
2018-09-06T04:09:22.180Z,18.83
2018-09-06T04:10:22.052Z,18.89
2018-09-06T04:11:22.090Z,18.90
2018-09-06T04:12:21.891Z,18.96
2018-09-06T04:13:21.948Z,18.93
2018-09-06T04:14:21.724Z,18.89
2018-09-06T04:15:21.705Z,18.96
2018-09-06T04:16:21.581Z,18.89
2018-09-06T04:17:21.512Z,18.89
2018-09-06T04:18:21.460Z,19.01
2018-09-06T04:19:21.424Z,19.05
2018-09-06T04:20:21.263Z,18.84
2018-09-06T04:21:21.241Z,18.79
2018-09-06T04:22:21.111Z,18.83
2018-09-06T04:23:22.110Z,18.87
2018-09-06T04:24:21.033Z,18.87
2018-09-06T04:25:20.958Z,18.87
2018-09-06T04:26:20.776Z,19.02
2018-09-06T04:27:20.769Z,19.01
2018-09-06T04:28:20.623Z,18.94
2018-09-06T04:29:20.577Z,19.05
2018-09-06T04:30:20.469Z,18.91
2018-09-06T04:31:20.494Z,18.93
2018-09-06T04:32:20.299Z,18.87
2018-09-06T04:33:20.296Z,18.86
2018-09-06T04:34:20.162Z,18.84
2018-09-06T04:35:20.110Z,18.83
2018-09-06T04:36:20.050Z,18.89
2018-09-06T04:37:20.019Z,18.75
2018-09-06T04:38:19.825Z,18.75
2018-09-06T04:39:19.849Z,18.79
2018-09-06T04:40:19.689Z,18.76
2018-09-06T04:41:19.627Z,18.89
2018-09-06T04:42:19.499Z,18.75
2018-09-06T04:43:19.549Z,18.65
2018-09-06T04:44:19.346Z,18.64
2018-09-06T04:45:20.403Z,18.62
2018-09-06T04:46:19.186Z,18.62
2018-09-06T04:49:01.266Z,18.68
2018-09-06T04:50:02.327Z,18.65
2018-09-06T04:51:01.107Z,18.51
2018-09-06T04:52:01.075Z,18.57
2018-09-06T04:53:00.952Z,18.68
2018-09-06T04:54:00.972Z,18.60
2018-09-06T04:55:00.801Z,18.68
2018-09-06T04:56:00.720Z,18.60
2018-09-06T04:57:00.633Z,18.62
2018-09-06T04:58:00.553Z,18.65
2018-09-06T04:59:00.489Z,18.68
2018-09-06T05:00:00.429Z,18.62
2018-09-06T05:01:00.312Z,18.50
2018-09-06T05:03:42.268Z,18.62
2018-09-06T05:06:24.291Z,18.66
2018-09-06T05:07:24.200Z,18.68
2018-09-06T05:08:24.113Z,18.74
2018-09-06T05:09:24.044Z,18.65
2018-09-06T05:10:23.981Z,18.62
2018-09-06T05:13:18.285Z,18.64
2018-09-06T05:14:18.221Z,18.62
2018-09-06T05:15:18.135Z,18.72
2018-09-06T05:16:18.060Z,18.91
2018-09-06T05:17:18.009Z,18.83
2018-09-06T05:18:17.871Z,18.82
2018-09-06T05:19:17.798Z,18.79
2018-09-06T05:20:17.729Z,18.72
2018-09-06T05:21:17.674Z,18.74
2018-09-06T05:22:17.559Z,18.78
2018-09-06T05:23:17.494Z,18.75
2018-09-06T05:24:17.400Z,18.78
2018-09-06T05:25:17.320Z,18.72
2018-09-06T05:26:17.259Z,18.83
2018-09-06T05:27:17.173Z,18.78
2018-09-06T05:28:17.086Z,18.72
2018-09-06T05:29:17.004Z,18.84
2018-09-06T05:30:16.922Z,18.82
2018-09-06T05:31:16.908Z,18.91
2018-09-06T05:32:16.787Z,18.82
2018-09-06T05:33:16.699Z,18.83
2018-09-06T05:34:16.620Z,18.87
2018-09-06T05:35:16.707Z,18.84
2018-09-06T05:36:16.545Z,18.72
2018-09-06T05:37:16.379Z,18.76
2018-09-06T05:38:16.283Z,18.86
2018-09-06T05:39:16.207Z,18.83
2018-09-06T05:40:16.138Z,18.72
2018-09-06T05:41:17.071Z,18.83
2018-09-06T05:42:15.965Z,18.78
2018-09-06T05:43:15.907Z,18.74
2018-09-06T05:44:15.818Z,18.78
2018-09-06T05:45:15.748Z,18.84
2018-09-06T05:46:15.668Z,18.79
2018-09-06T05:47:16.604Z,18.83
2018-09-06T05:48:15.494Z,18.72
2018-09-06T05:49:15.411Z,18.75
2018-09-06T05:50:15.334Z,18.72
2018-09-06T05:51:15.283Z,18.71
2018-09-06T05:52:15.184Z,18.72
2018-09-06T05:54:57.279Z,18.71
2018-09-06T05:57:39.325Z,18.69
2018-09-06T05:58:39.208Z,18.71
2018-09-06T05:59:39.166Z,18.59
2018-09-06T06:00:39.064Z,18.71
2018-09-06T06:01:38.984Z,18.60
2018-09-06T06:02:38.891Z,18.65
2018-09-06T06:03:38.815Z,18.68
2018-09-06T06:04:38.737Z,18.57
2018-09-06T06:05:38.651Z,18.62
2018-09-06T06:06:39.586Z,18.57
2018-09-06T06:07:38.482Z,18.64
2018-09-06T06:08:38.418Z,18.66
2018-09-06T06:09:38.434Z,18.68
2018-09-06T06:10:38.257Z,18.65
2018-09-06T06:11:38.187Z,18.69
2018-09-06T06:12:38.293Z,18.71
2018-09-06T06:13:38.017Z,18.74
2018-09-06T06:16:20.298Z,18.72
2018-09-06T06:17:20.221Z,18.71
2018-09-06T06:18:20.143Z,18.71
2018-09-06T06:19:20.072Z,18.72
2018-09-06T06:20:19.977Z,18.71
2018-09-06T06:23:01.791Z,18.78
2018-09-06T06:24:02.745Z,18.83
2018-09-06T06:25:01.664Z,18.86
2018-09-06T06:26:01.642Z,18.82
2018-09-06T06:27:01.478Z,18.82
2018-09-06T06:29:43.305Z,18.90
2018-09-06T06:30:43.286Z,18.86
2018-09-06T06:58:05.250Z,18.76
2018-09-06T06:59:05.173Z,18.75
2018-09-06T07:00:05.083Z,18.91
2018-09-06T07:01:05.094Z,18.84
2018-09-06T07:02:04.925Z,18.90
2018-09-06T07:03:04.840Z,18.99
2018-09-06T07:04:04.832Z,18.96
2018-09-06T07:05:04.665Z,18.97
2018-09-06T07:06:04.600Z,18.97
2018-09-06T07:07:04.538Z,18.94
2018-09-06T07:08:04.437Z,18.91
2018-09-06T07:09:04.393Z,18.96
2018-09-06T07:10:04.279Z,19.02
2018-09-06T07:11:04.209Z,18.96
2018-09-06T07:12:04.112Z,18.96
2018-09-06T07:13:04.054Z,19.01
2018-09-06T07:14:04.003Z,19.10
2018-09-06T07:15:03.910Z,18.96
2018-09-06T07:16:03.808Z,18.97
2018-09-06T07:17:03.738Z,18.79
2018-09-06T07:18:03.788Z,18.87
2018-09-06T07:19:03.693Z,18.82
2018-09-06T07:20:03.487Z,18.90
2018-09-06T07:21:03.490Z,18.76
2018-09-06T07:23:45.309Z,18.86
2018-09-06T07:24:45.410Z,18.83
2018-09-06T07:25:45.161Z,18.82
2018-09-06T07:26:45.104Z,18.78
2018-09-06T07:27:44.992Z,18.91
2018-09-06T07:28:44.919Z,18.91
2018-09-06T07:29:44.824Z,18.97
2018-09-06T07:30:44.785Z,18.93
2018-09-06T07:31:44.672Z,18.94
2018-09-06T07:32:44.606Z,18.87
2018-09-06T07:33:44.522Z,18.89
2018-09-06T07:34:44.477Z,19.02
2018-09-06T07:35:44.388Z,18.97
2018-09-06T07:36:44.288Z,19.01
2018-09-06T07:37:44.198Z,18.99
2018-09-06T07:40:26.345Z,19.12
2018-09-06T07:43:08.321Z,19.24
2018-09-06T07:45:50.352Z,19.15
2018-09-06T07:48:58.317Z,19.23
2018-09-06T07:49:58.244Z,19.25
2018-09-06T07:50:58.192Z,19.23
2018-09-06T07:51:58.076Z,19.21
2018-09-06T07:52:58.005Z,19.35
2018-09-06T07:53:57.927Z,19.38
2018-09-06T07:54:57.875Z,19.31
2018-09-06T07:55:57.782Z,19.42
2018-09-06T07:56:57.691Z,19.47
2018-09-06T07:57:57.618Z,19.50
2018-09-06T07:58:57.539Z,19.60
2018-09-06T07:59:57.456Z,19.65
2018-09-06T08:00:57.367Z,19.64
2018-09-06T08:01:57.304Z,19.58
2018-09-06T08:02:57.212Z,19.62
2018-09-06T08:03:57.132Z,19.53
2018-09-06T08:04:57.063Z,19.60
2018-09-06T08:05:56.967Z,19.60
2018-09-06T08:06:56.938Z,19.68
2018-09-06T08:07:56.814Z,19.67
2018-09-06T08:10:38.823Z,19.79
2018-09-06T08:13:20.844Z,19.92
2018-09-06T08:14:20.777Z,19.95
2018-09-06T08:15:20.672Z,19.89
2018-09-06T08:41:42.474Z,20.01
2018-09-06T08:42:42.370Z,20.02
2018-09-06T08:43:42.314Z,19.94
2018-09-06T08:44:42.218Z,20.05
2018-09-06T08:45:42.132Z,20.01
2018-09-06T08:46:42.054Z,19.90
2018-09-06T08:47:42.020Z,20.02
2018-09-06T08:48:41.938Z,19.92
2018-09-06T08:49:41.809Z,19.98
2018-09-06T08:50:41.750Z,19.90
2018-09-06T08:51:41.669Z,19.89
2018-09-06T08:54:23.856Z,19.94
2018-09-06T08:55:23.781Z,20.01
2018-09-06T08:56:23.715Z,19.94
2018-09-06T08:57:23.612Z,19.87
2018-09-06T08:58:23.556Z,19.92
2018-09-06T08:59:23.485Z,19.90
2018-09-06T09:00:23.361Z,19.92
2018-09-06T09:01:23.299Z,19.85
2018-09-06T09:02:23.268Z,19.89
2018-09-06T09:03:23.222Z,19.80
2018-09-06T09:04:23.074Z,19.83
2018-09-06T09:05:22.984Z,19.87
2018-09-06T09:06:22.894Z,19.95
2018-09-06T09:07:22.825Z,19.95
2018-09-06T09:08:22.798Z,19.87
2018-09-06T09:09:22.712Z,19.87
2018-09-06T09:10:22.624Z,19.89
2018-09-06T09:11:22.543Z,19.90
2018-09-06T09:12:22.466Z,19.94
2018-09-06T09:13:22.418Z,19.92
2018-09-06T09:14:22.301Z,19.94
2018-09-06T09:15:22.239Z,19.95
2018-09-06T09:16:22.153Z,19.90
2018-09-06T09:19:04.349Z,20.00
2018-09-06T09:20:04.307Z,19.95
2018-09-06T09:21:04.184Z,19.95
2018-09-06T09:22:04.246Z,19.92
2018-09-06T09:23:04.030Z,19.87
2018-09-06T09:24:03.962Z,19.86
2018-09-06T09:25:03.898Z,19.70
2018-09-06T09:26:03.823Z,19.68
2018-09-06T09:27:03.722Z,19.61
2018-09-06T09:28:03.651Z,19.68
2018-09-06T09:29:03.575Z,19.57
2018-09-06T09:30:03.558Z,19.52
2018-09-06T09:31:03.398Z,19.49
2018-09-06T09:32:03.342Z,19.49
2018-09-06T09:33:03.242Z,19.34
2018-09-06T09:34:03.190Z,19.42
2018-09-06T09:35:03.119Z,19.35
2018-09-06T09:36:03.058Z,19.30
2018-09-06T09:37:02.952Z,19.39
2018-09-06T09:38:02.855Z,19.38
2018-09-06T09:39:02.767Z,19.46
2018-09-06T09:40:02.727Z,19.46
2018-09-06T09:41:02.628Z,19.43
2018-09-06T09:42:02.536Z,19.52
2018-09-06T09:43:02.455Z,19.49
2018-09-06T09:44:02.378Z,19.47
2018-09-06T09:49:37.332Z,19.30
2018-09-06T09:50:59.227Z,19.30
2018-09-06T09:51:37.119Z,19.45
2018-09-06T09:52:37.045Z,19.40
2018-09-06T09:53:36.976Z,19.32
2018-09-06T09:54:36.880Z,19.39
2018-09-06T09:55:36.814Z,19.49
2018-09-06T09:56:36.752Z,19.47
2018-09-06T09:57:36.667Z,19.46
2018-09-06T09:58:36.567Z,19.47
2018-09-06T09:59:36.504Z,19.45
2018-09-06T10:00:36.400Z,19.49
2018-09-06T10:01:36.345Z,19.42
2018-09-06T10:02:36.251Z,19.46
2018-09-06T10:04:36.108Z,19.46
2018-09-06T10:05:36.020Z,19.47
2018-09-06T10:06:36.021Z,19.42
2018-09-06T10:07:35.854Z,19.53
2018-09-06T10:08:35.777Z,19.40
2018-09-06T10:09:35.705Z,19.46
2018-09-06T10:10:35.616Z,19.49
2018-09-06T10:11:35.556Z,19.58
2018-09-06T10:12:35.486Z,19.50
2018-09-06T10:13:35.372Z,19.52
2018-09-06T10:14:35.308Z,19.49
2018-09-06T10:15:35.227Z,19.52
2018-09-06T10:16:35.141Z,19.49
2018-09-06T10:17:36.086Z,19.49
2018-09-06T10:18:34.976Z,19.55
2018-09-06T10:21:17.291Z,19.53
2018-09-06T10:22:17.231Z,19.42
2018-09-06T10:23:17.133Z,19.52
2018-09-06T10:24:17.842Z,19.50
2018-09-06T10:25:16.971Z,19.49
2018-09-06T10:26:16.911Z,19.42
2018-09-06T10:27:16.831Z,19.28
2018-09-06T10:28:16.738Z,19.32
2018-09-06T10:29:16.655Z,19.28
2018-09-06T10:30:16.573Z,19.38
2018-09-06T10:31:16.490Z,19.30
2018-09-06T10:32:16.431Z,19.42
2018-09-06T10:33:16.348Z,19.38
2018-09-06T10:34:16.262Z,19.45
2018-09-06T10:35:16.199Z,19.45
2018-09-06T10:36:16.104Z,19.43
2018-09-06T10:37:16.213Z,19.46
2018-09-06T10:38:16.433Z,19.46
2018-09-06T10:39:16.017Z,19.42
2018-09-06T10:40:17.405Z,19.25
2018-09-06T10:41:16.328Z,19.30
2018-09-06T10:42:15.632Z,19.25
2018-09-06T10:43:15.629Z,19.13
2018-09-06T10:44:15.473Z,19.17
2018-09-06T10:45:15.385Z,19.09
2018-09-06T10:46:15.315Z,19.16
2018-09-06T10:47:15.231Z,19.24
2018-09-06T10:48:15.154Z,19.12
2018-09-06T10:49:15.111Z,19.16
2018-09-06T10:51:57.303Z,19.32
2018-09-06T10:52:57.222Z,19.32
2018-09-06T10:53:57.190Z,19.25
2018-09-06T10:54:57.078Z,19.27
2018-09-06T10:55:56.979Z,19.28
2018-09-06T10:56:56.918Z,19.34
2018-09-06T10:57:56.818Z,19.30
2018-09-06T10:58:56.774Z,19.28
2018-09-06T10:59:56.673Z,19.34
2018-09-06T11:00:56.625Z,19.32
2018-09-06T11:01:56.506Z,19.31
2018-09-06T11:02:56.432Z,19.38
2018-09-06T11:03:56.366Z,19.34
2018-09-06T11:06:38.310Z,19.47
2018-09-06T11:07:38.220Z,19.47
2018-09-06T11:08:38.137Z,19.57
2018-09-06T11:09:38.097Z,19.38
2018-09-06T11:10:37.981Z,19.43
2018-09-06T11:11:37.907Z,19.53
2018-09-06T11:12:37.828Z,19.58
2018-09-06T11:13:37.751Z,19.64
2018-09-06T11:14:37.693Z,19.62
2018-09-06T11:17:19.815Z,19.65
2018-09-06T11:20:01.835Z,19.67
2018-09-06T11:21:01.766Z,19.67
2018-09-06T11:22:01.985Z,19.65
2018-09-06T11:23:01.580Z,19.67
2018-09-06T11:24:01.490Z,19.62
2018-09-06T11:25:01.443Z,19.61
2018-09-06T11:26:01.324Z,19.53
2018-09-06T11:27:01.255Z,19.60
2018-09-06T11:28:01.177Z,19.75
2018-09-06T11:29:01.094Z,19.89
2018-09-06T11:30:01.041Z,20.02
2018-09-06T11:31:00.953Z,20.08
2018-09-06T11:32:00.872Z,20.26
2018-09-06T11:34:42.833Z,20.66
2018-09-06T11:35:42.751Z,20.69
2018-09-06T11:36:42.660Z,20.73
2018-09-06T11:37:42.583Z,20.93
2018-09-06T11:38:42.492Z,20.97
2018-09-06T11:39:42.424Z,20.94
2018-09-06T11:40:42.365Z,21.03
2018-09-06T11:41:42.311Z,20.96
2018-09-06T11:42:42.195Z,20.94
2018-09-06T11:45:24.333Z,20.91
2018-09-06T11:46:24.320Z,20.81
2018-09-06T11:47:24.236Z,20.71
2018-09-06T11:50:06.314Z,20.57
2018-09-06T11:51:06.267Z,20.63
2018-09-06T11:52:06.155Z,20.66
2018-09-06T11:54:48.313Z,20.93
2018-09-06T11:57:30.338Z,21.15
2018-09-06T12:00:12.317Z,21.00
2018-09-06T12:01:12.284Z,21.03
2018-09-06T12:02:12.213Z,21.19
2018-09-06T12:03:12.095Z,21.22
2018-09-06T12:04:12.012Z,21.13
2018-09-06T12:05:11.932Z,21.16
2018-09-06T12:06:11.880Z,21.13
2018-09-06T12:07:12.807Z,21.36
2018-09-06T12:08:11.697Z,21.40
2018-09-06T12:10:53.834Z,21.64
2018-09-06T12:11:53.737Z,21.64
2018-09-06T12:12:53.693Z,21.71
2018-09-06T12:13:53.651Z,21.82
2018-09-06T12:14:53.519Z,21.75
2018-09-06T12:15:53.427Z,21.89
2018-09-06T12:18:35.360Z,22.05
2018-09-06T12:19:35.361Z,22.15
2018-09-06T12:20:35.193Z,22.17
2018-09-06T12:23:17.345Z,22.31
2018-09-06T12:24:17.257Z,22.36
2018-09-06T12:25:17.223Z,22.44
2018-09-06T12:26:17.100Z,22.38
2018-09-06T12:27:17.043Z,22.33
2018-09-06T12:28:16.958Z,22.31
2018-09-06T12:29:16.862Z,22.35
2018-09-06T12:30:16.794Z,22.21
2018-09-06T12:31:16.703Z,22.11
2018-09-06T12:32:16.694Z,21.91
2018-09-06T12:33:16.660Z,21.86
2018-09-06T12:34:16.487Z,21.77
2018-09-06T12:35:16.399Z,21.67
2018-09-06T12:36:16.337Z,21.63
2018-09-06T12:37:16.280Z,21.59
2018-09-06T12:38:16.181Z,21.64
2018-09-06T12:39:16.101Z,21.68
2018-09-06T12:40:16.030Z,21.79
2018-09-06T12:41:15.967Z,21.74
2018-09-06T12:42:15.876Z,21.77
2018-09-06T12:43:15.905Z,21.82
2018-09-06T12:44:15.715Z,21.82
2018-09-06T12:45:15.631Z,21.90
2018-09-06T12:46:15.552Z,21.91
2018-09-06T12:47:15.492Z,21.90
2018-09-06T12:48:15.414Z,21.90
2018-09-06T12:49:15.350Z,21.85
2018-09-06T12:51:57.425Z,21.90
2018-09-06T12:52:57.292Z,22.02
2018-09-06T12:53:57.181Z,22.04
2018-09-06T12:54:57.132Z,22.01
2018-09-06T12:55:57.029Z,22.15
2018-09-06T12:58:39.371Z,22.15
2018-09-06T12:59:40.296Z,22.19
2018-09-06T13:00:39.195Z,22.23
2018-09-06T13:01:39.123Z,22.14
2018-09-06T13:02:39.042Z,22.06
2018-09-06T13:03:38.974Z,22.06
2018-09-06T13:04:38.909Z,21.91
2018-09-06T13:07:20.857Z,21.61
2018-09-06T13:08:20.765Z,21.63
2018-09-06T13:09:20.696Z,21.64
2018-09-06T13:10:20.641Z,21.63
2018-09-06T13:11:20.564Z,21.64
2018-09-06T13:12:20.461Z,21.61
2018-09-06T13:13:20.381Z,21.56
2018-09-06T13:14:20.350Z,21.56
2018-09-06T13:15:20.246Z,21.53
2018-09-06T13:16:20.151Z,21.56
2018-09-06T13:17:20.075Z,21.67
2018-09-06T13:18:20.056Z,21.52
2018-09-06T13:19:19.934Z,21.58
2018-09-06T13:20:19.852Z,21.63
2018-09-06T13:21:19.765Z,21.52
2018-09-06T13:22:19.710Z,21.49
2018-09-06T13:23:19.605Z,21.46
2018-09-06T13:24:19.547Z,21.40
2018-09-06T13:25:19.481Z,21.33
2018-09-06T13:26:19.418Z,21.19
2018-09-06T13:27:19.323Z,21.19
2018-09-06T13:28:19.232Z,21.11
2018-09-06T13:29:19.155Z,21.08
2018-09-06T13:30:19.070Z,21.03
2018-09-06T13:31:18.982Z,20.88
2018-09-06T13:32:18.910Z,20.91
2018-09-06T13:33:18.829Z,20.88
2018-09-06T13:34:18.791Z,20.83
2018-09-06T13:35:18.685Z,20.81
2018-09-06T13:36:18.608Z,20.72
2018-09-06T13:37:18.656Z,20.60
2018-09-06T13:40:00.861Z,20.60
2018-09-06T13:41:00.791Z,20.51
2018-09-06T13:42:00.741Z,20.46
2018-09-06T13:43:00.648Z,20.41
2018-09-06T13:44:00.541Z,20.48
2018-09-06T13:45:00.499Z,20.41
2018-09-06T13:46:00.404Z,20.37
2018-09-06T13:47:00.349Z,20.35
2018-09-06T13:48:00.233Z,20.34
2018-09-06T13:49:00.163Z,20.37
2018-09-06T13:50:00.123Z,20.44
2018-09-06T13:51:00.021Z,20.42
2018-09-06T13:51:59.968Z,20.44
2018-09-06T13:54:41.899Z,20.38
2018-09-06T13:55:41.822Z,20.48
2018-09-06T13:56:41.749Z,20.57
2018-09-06T13:57:41.661Z,20.56
2018-09-06T13:58:41.584Z,20.66
2018-09-06T13:59:41.520Z,20.82
2018-09-06T14:00:41.413Z,20.96
2018-09-06T14:01:42.372Z,21.18
2018-09-06T14:02:41.241Z,21.28
2018-09-06T14:05:23.387Z,21.55
2018-09-06T14:06:23.296Z,21.58
2018-09-06T14:07:23.237Z,21.58
2018-09-06T14:08:23.158Z,21.64
2018-09-06T14:09:23.067Z,21.63
2018-09-06T14:12:04.920Z,21.55
2018-09-06T14:13:04.835Z,21.59
2018-09-06T14:14:04.758Z,21.63
2018-09-06T14:15:04.692Z,21.61
2018-09-06T14:16:04.573Z,21.67
2018-09-06T14:17:04.543Z,21.56
2018-09-06T14:18:04.398Z,21.45
2018-09-06T14:19:04.355Z,21.26
2018-09-06T14:20:04.274Z,21.30
2018-09-06T14:21:04.184Z,21.16
2018-09-06T14:22:04.106Z,21.27
2018-09-06T14:23:04.019Z,21.37
2018-09-06T14:24:03.942Z,21.53
2018-09-06T14:25:03.869Z,21.61
2018-09-06T14:26:03.953Z,21.64
2018-09-06T14:27:03.750Z,21.90
2018-09-06T14:28:03.639Z,22.19
2018-09-06T14:29:03.583Z,22.20
2018-09-06T14:30:03.476Z,22.27
2018-09-06T14:32:45.374Z,22.42
2018-09-06T14:33:45.363Z,22.59
2018-09-06T14:34:45.221Z,22.67
2018-09-06T15:01:07.556Z,22.19
2018-09-06T15:02:07.423Z,22.33
2018-09-06T15:03:07.352Z,22.33
2018-09-06T15:04:07.308Z,22.44
2018-09-06T15:06:49.413Z,22.42
2018-09-06T15:09:31.406Z,22.63
2018-09-06T15:10:31.318Z,22.57
2018-09-06T15:11:31.232Z,22.72
2018-09-06T15:12:31.157Z,22.49
2018-09-06T15:13:31.115Z,22.64
2018-09-06T15:14:31.044Z,22.54
2018-09-06T15:15:30.935Z,22.52
2018-09-06T15:16:30.882Z,22.45
2018-09-06T15:17:30.771Z,22.46
2018-09-06T15:18:30.713Z,22.41
2018-09-06T15:19:30.618Z,22.48
2018-09-06T15:22:12.905Z,22.31
2018-09-06T15:23:12.847Z,22.30
2018-09-06T15:24:12.738Z,22.31
2018-09-06T15:25:12.687Z,22.33
2018-09-06T15:26:12.613Z,22.23
2018-09-06T15:27:12.506Z,22.14
2018-09-06T15:28:12.420Z,22.15
2018-09-06T15:29:12.373Z,22.17
2018-09-06T15:30:12.291Z,22.15
2018-09-06T15:31:12.223Z,22.12
2018-09-06T15:32:12.132Z,22.11
2018-09-06T15:33:12.060Z,22.04
2018-09-06T15:34:11.964Z,22.05
2018-09-06T15:35:11.913Z,21.91
2018-09-06T15:36:11.799Z,21.86
2018-09-06T15:37:11.752Z,21.85
2018-09-06T15:38:11.651Z,21.77
2018-09-06T15:39:11.573Z,21.83
2018-09-06T15:40:11.522Z,21.77
2018-09-06T15:41:11.530Z,21.82
2018-09-06T15:42:11.352Z,21.89
2018-09-06T15:43:12.386Z,22.04
2018-09-06T15:44:11.198Z,22.14
2018-09-06T15:45:11.147Z,22.14
2018-09-06T15:46:12.930Z,22.44
2018-09-06T15:47:11.062Z,22.56
2018-09-06T15:48:10.886Z,22.69
2018-09-06T15:50:52.931Z,22.88
2018-09-06T15:51:52.882Z,22.72
2018-09-06T15:52:52.757Z,22.76
2018-09-06T15:53:52.812Z,22.70
2018-09-06T15:54:52.609Z,22.85
2018-09-06T15:55:52.632Z,22.91
2018-09-06T15:56:52.523Z,22.91
2018-09-06T15:57:52.383Z,22.69
2018-09-06T15:58:52.286Z,22.60
2018-09-06T15:59:52.318Z,22.51
2018-09-06T16:00:52.159Z,22.35
2018-09-06T16:01:52.127Z,22.31
2018-09-06T16:02:51.995Z,22.29
2018-09-06T16:03:52.119Z,22.29
2018-09-06T16:04:51.837Z,22.26
2018-09-06T16:05:51.760Z,22.17
2018-09-06T16:06:51.709Z,22.19
2018-09-06T16:07:52.071Z,22.14
2018-09-06T16:08:51.551Z,22.15
2018-09-06T16:09:51.451Z,22.05
2018-09-06T16:10:51.353Z,22.02
2018-09-06T16:11:51.302Z,21.91
2018-09-06T16:12:51.210Z,21.91
2018-09-06T16:13:51.111Z,21.89
2018-09-06T16:14:51.043Z,21.70
2018-09-06T16:15:50.966Z,21.67
2018-09-06T16:16:50.909Z,21.64
2018-09-06T16:17:50.822Z,21.71
2018-09-06T16:18:50.820Z,21.61